KLYO/LYO METAR and TAF weather

Enter ICAO airport designator
Station Type Date Time Source
KLYO METAR 2019/04/20 22:15 UTC NOAA

KLYO 202215Z AUTO 17018KT 10SM CLR 27/09 A2977 RMK AO2 T02670092


Station Type Date Time Source
KLYO Decoded METAR 2019/04/20 22:15 UTC NOAA

Station name not available
Apr 20, 2019 - 06:15 PM EDT / 2019.04.20 2215 UTC
Wind: from the S (170 degrees) at 21 MPH (18 KT):0
Visibility: 10 mile(s):0
Sky conditions: clear
Temperature: 80.1 F (26.7 C)
Dew Point: 48.6 F (9.2 C)
Relative Humidity: 33%
Pressure (altimeter): 29.77 in. Hg (1008 hPa)
ob: KLYO 202215Z AUTO 17018KT 10SM CLR 27/09 A2977 RMK AO2 T02670092
cycle: 22

Station Type Date Time Source
KLYO TAF UTC NOAA

Error!

Example: see airport list